Time;durP1;ratioP1;P1;durP2;ratioP2;P2;SDS_P1;SDS_P2;PMS_P1;PMS_P2;Temp;Humidity;BMP_temperature;BMP_pressure;BME280_temperature;BME280_humidity;BME280_pressure;Samples;Min_cycle;Max_cycle;Signal;HPM_P1;HPM_P2
2022/06/15 00:01:42;;;;;;;;;;;20.10;67.40;;;19.40;62.87;96625.53;4074531;34;19911;-82
2022/06/15 00:04:11;;;;;;;;;;;20.10;67.50;;;19.39;62.85;96632.22;4053360;34;19927;-82
2022/06/15 00:06:42;;;;;;;;;;;20.10;67.50;;;19.39;62.98;96637.78;4075117;34;19905;-81
2022/06/15 00:09:11;;;;;;;;;;;20.10;67.40;;;19.39;62.92;96638.59;4075053;34;20397;-81
2022/06/15 00:11:42;;;;;;;;;;;20.00;67.20;;;19.39;62.63;96635.00;4096603;34;19904;-82
2022/06/15 00:14:14;;;;;;;;;;;20.10;67.40;;;19.39;62.86;96640.56;4075008;34;19904;-81
2022/06/15 00:16:43;;;;;;;;;;;20.10;67.50;;;19.40;62.94;96631.09;4074775;34;19904;-82
2022/06/15 00:19:12;;;;;;;;;;;20.10;67.50;;;19.38;63.05;96619.47;4053467;34;19970;-82
2022/06/15 00:21:42;;;;;;;;;;;20.00;67.40;;;19.38;62.91;96630.59;4052696;34;19911;-82
2022/06/15 00:24:11;;;;;;;;;;;20.10;67.50;;;19.38;62.77;96630.59;4053150;34;19911;-82
2022/06/15 00:26:41;;;;;;;;;;;20.00;67.40;;;19.38;62.78;96630.59;4074724;34;20350;-82
2022/06/15 00:29:10;;;;;;;;;;;20.10;67.50;;;19.39;62.84;96621.13;4097714;34;20162;-81
2022/06/15 00:31:39;;;;;;;;;;;20.00;67.30;;;19.38;63.03;96622.25;4052382;34;19905;-82
2022/06/15 00:34:08;;;;;;;;;;;20.00;67.40;;;19.37;62.73;96609.50;4053109;34;20151;-82
2022/06/15 00:36:37;;;;;;;;;;;20.00;67.40;;;19.37;62.48;96615.06;4074674;34;20132;-81
2022/06/15 00:39:07;;;;;;;;;;;20.00;67.50;;;19.37;63.13;96617.84;4074561;34;19911;-82
2022/06/15 00:41:37;;;;;;;;;;;20.00;67.50;;;19.36;62.91;96605.94;4074273;34;19904;-82
2022/06/15 00:44:35;;;;;;;;;;;20.00;67.50;;;19.36;63.00;96611.47;4052899;34;20029;-82
2022/06/15 00:47:11;;;;;;;;;;;20.00;67.50;;;19.36;63.09;96616.19;4074503;34;19905;-82
2022/06/15 00:49:43;;;;;;;;;;;20.00;67.50;;;19.36;62.89;96610.66;4074795;34;19905;-82
2022/06/15 00:52:15;;;;;;;;;;;20.00;67.50;;;19.35;63.18;96603.44;4074303;34;19912;-82
2022/06/15 00:54:46;;;;;;;;;;;20.00;67.50;;;19.34;62.80;96608.19;4052943;34;19999;-82
2022/06/15 00:57:15;;;;;;;;;;;20.00;67.50;;;19.34;62.74;96608.19;4052830;34;19905;-82
2022/06/15 00:59:49;;;;;;;;;;;20.00;67.50;;;19.35;62.76;96620.09;4052694;34;20013;-82
2022/06/15 01:02:18;;;;;;;;;;;20.00;67.50;;;19.34;62.90;96612.91;4052453;34;19977;-82
2022/06/15 01:04:48;;;;;;;;;;;20.00;67.50;;;19.34;63.02;96619.31;4074558;34;19905;-82
2022/06/15 01:07:34;;;;;;;;;;;20.00;67.50;;;19.32;62.85;96611.28;4074462;34;20318;-82
2022/06/15 01:10:18;;;;;;;;;;;20.00;67.60;;;19.34;63.17;96612.91;4073864;34;20097;-81
2022/06/15 01:12:53;;;;;;;;;;;20.00;67.60;;;19.32;63.09;96611.28;4074342;34;19925;-81
2022/06/15 01:15:32;;;;;;;;;;;20.00;67.60;;;19.31;63.00;96609.63;4097372;34;20094;-81
2022/06/15 01:18:16;;;;;;;;;;;20.00;67.60;;;19.30;62.84;96613.53;4097057;34;19904;-82
2022/06/15 01:21:03;;;;;;;;;;;20.00;67.60;;;19.31;63.03;96604.06;4073979;34;20212;-81
2022/06/15 01:24:29;;;;;;;;;;;20.00;67.60;;;19.30;62.90;96602.44;4052519;34;19912;-82
2022/06/15 01:27:56;;;;;;;;;;;20.00;67.70;;;19.30;63.36;96609.97;4074285;34;19905;-81
2022/06/15 01:30:33;;;;;;;;;;;20.00;67.70;;;19.29;63.14;96609.16;4073441;34;20396;-82
2022/06/15 01:33:25;;;;;;;;;;;20.00;67.70;;;19.28;63.37;96599.19;4073939;34;20193;-82
2022/06/15 01:36:04;;;;;;;;;;;20.00;67.80;;;19.28;63.38;96599.19;4073805;34;20093;-82
2022/06/15 01:38:39;;;;;;;;;;;20.00;67.80;;;19.28;63.23;96599.19;4074082;34;19912;-82
2022/06/15 01:41:13;;;;;;;;;;;20.00;67.80;;;19.28;63.33;96599.19;4073436;34;20219;-82
2022/06/15 01:43:47;;;;;;;;;;;19.90;67.90;;;19.27;63.19;96592.00;4074020;34;19905;-82
2022/06/15 01:46:18;;;;;;;;;;;20.00;67.90;;;19.27;63.41;96596.72;4052334;34;20058;-82
2022/06/15 01:48:48;;;;;;;;;;;19.90;67.90;;;19.27;63.08;96603.09;4074080;34;20126;-82
2022/06/15 01:51:19;;;;;;;;;;;20.00;67.90;;;19.26;63.07;96601.44;4073656;34;20429;-82
2022/06/15 01:53:50;;;;;;;;;;;19.90;67.90;;;19.26;63.15;96604.22;4052279;34;19904;-82
2022/06/15 01:56:21;;;;;;;;;;;19.90;68.00;;;19.25;63.24;96599.81;4052125;34;19905;-82
2022/06/15 01:58:54;;;;;;;;;;;19.90;67.90;;;19.25;63.33;96599.81;4073795;34;19928;-82
2022/06/15 02:01:33;;;;;;;;;;;19.90;67.90;;;19.24;63.44;96609.28;4073143;34;20242;-82
2022/06/15 02:04:09;;;;;;;;;;;19.90;67.90;;;19.25;63.20;96605.38;4095058;34;19916;-82
2022/06/15 02:06:52;;;;;;;;;;;19.90;67.90;;;19.25;63.45;96598.97;4073589;34;20126;-82
2022/06/15 02:09:24;;;;;;;;;;;19.90;67.90;;;19.24;63.60;96611.22;4052176;34;19912;-82
2022/06/15 02:11:53;;;;;;;;;;;19.90;67.80;;;19.24;63.28;96603.72;4051622;34;20403;-82
2022/06/15 02:14:26;;;;;;;;;;;19.90;67.90;;;19.23;63.28;96602.09;4053654;34;20223;-82
2022/06/15 02:16:58;;;;;;;;;;;19.90;67.80;;;19.23;63.21;96606.81;4073622;34;19905;-82
2022/06/15 02:19:32;;;;;;;;;;;19.90;67.90;;;19.23;63.28;96612.38;4073576;34;19905;-82
2022/06/15 02:22:03;;;;;;;;;;;19.90;68.00;;;19.22;63.21;96611.53;4051406;34;20116;-82
2022/06/15 02:24:33;;;;;;;;;;;19.90;67.90;;;19.21;63.33;96612.69;4051131;34;19904;-82
2022/06/15 02:27:03;;;;;;;;;;;19.90;67.80;;;19.22;63.11;96616.28;4073623;34;19905;-82
2022/06/15 02:29:32;;;;;;;;;;;19.90;67.80;;;19.20;63.23;96613.81;4051969;34;19998;-82
2022/06/15 02:32:03;;;;;;;;;;;19.90;67.90;;;19.20;63.21;96616.59;4095172;34;20044;-82
2022/06/15 02:34:32;;;;;;;;;;;19.90;68.00;;;19.21;63.31;96614.66;4073673;34;20112;-82
2022/06/15 02:37:00;;;;;;;;;;;19.90;67.90;;;19.20;63.45;96613.00;4051815;34;20219;-82
2022/06/15 02:39:29;;;;;;;;;;;19.80;67.80;;;19.19;63.35;96616.91;4096432;34;20156;-82
2022/06/15 02:42:02;;;;;;;;;;;19.90;67.90;;;19.19;63.25;96625.25;4072925;34;19951;-82
2022/06/15 02:44:33;;;;;;;;;;;19.90;67.90;;;19.20;63.31;96618.56;4073472;34;19904;-82
2022/06/15 02:47:04;;;;;;;;;;;19.90;68.00;;;19.19;63.13;96625.25;4074697;34;20089;-82
2022/06/15 02:49:32;;;;;;;;;;;19.90;67.90;;;19.18;63.31;96627.19;4054049;34;20167;-82
2022/06/15 02:52:06;;;;;;;;;;;19.90;67.90;;;19.17;63.15;96619.97;4075218;34;20224;-82
2022/06/15 02:54:40;;;;;;;;;;;19.80;67.90;;;19.17;63.20;96629.16;4075780;34;19912;-82
2022/06/15 02:57:16;;;;;;;;;;;19.80;67.90;;;19.17;63.18;96631.91;4054171;34;19909;-82
2022/06/15 02:59:46;;;;;;;;;;;19.90;68.00;;;19.18;63.32;96621.63;4075409;34;20333;-82
2022/06/15 03:02:17;;;;;;;;;;;19.80;67.70;;;19.17;63.53;96619.97;4053874;34;20083;-82
2022/06/15 03:04:48;;;;;;;;;;;19.80;67.70;;;19.17;63.16;96622.75;4054085;34;19911;-82
2022/06/15 03:07:20;;;;;;;;;;;19.80;67.80;;;19.17;63.27;96619.97;4075559;34;19904;-82
2022/06/15 03:09:49;;;;;;;;;;;19.80;67.90;;;19.16;63.50;96633.06;4075674;34;19905;-82
2022/06/15 03:12:20;;;;;;;;;;;19.80;67.90;;;19.17;63.51;96622.75;4054041;34;19912;-82
2022/06/15 03:14:49;;;;;;;;;;;19.80;67.90;;;19.17;63.24;96626.38;4053744;34;20044;-82
2022/06/15 03:17:22;;;;;;;;;;;19.80;67.90;;;19.17;63.18;96619.97;4053896;34;19905;-82
2022/06/15 03:19:57;;;;;;;;;;;19.80;67.70;;;19.17;63.01;96615.28;4075111;34;20332;-82
2022/06/15 03:22:28;;;;;;;;;;;19.90;67.90;;;19.17;63.15;96619.97;4053747;34;20220;-82
2022/06/15 03:25:00;;;;;;;;;;;19.80;67.70;;;19.18;63.09;96627.19;4075466;34;19905;-82
2022/06/15 03:27:29;;;;;;;;;;;19.80;67.70;;;19.18;63.11;96627.19;4053683;34;19927;-82
2022/06/15 03:30:00;;;;;;;;;;;19.90;68.60;;;19.19;63.31;96630.78;4075025;34;20139;-82
2022/06/15 03:32:37;;;;;;;;;;;19.80;67.70;;;19.18;63.01;96627.19;4053761;34;19914;-82
2022/06/15 03:35:08;;;;;;;;;;;19.90;67.80;;;19.20;62.78;96629.66;4053683;34;19912;-82
2022/06/15 03:37:39;;;;;;;;;;;19.90;67.60;;;19.20;62.86;96637.97;4075280;34;20001;-82
2022/06/15 03:40:28;;;;;;;;;;;19.80;67.40;;;19.20;62.78;96633.25;4097325;34;19905;-82
2022/06/15 03:42:57;;;;;;;;;;;19.90;67.50;;;19.19;62.68;96631.59;4075137;34;19905;-82
2022/06/15 03:45:27;;;;;;;;;;;19.80;67.30;;;19.19;62.89;96633.56;4053358;34;20167;-82
2022/06/15 03:47:58;;;;;;;;;;;19.90;67.30;;;19.20;62.84;96647.13;4075160;34;20063;-82
2022/06/15 03:50:29;;;;;;;;;;;19.90;67.60;;;19.19;62.77;96645.47;4053231;34;20071;-82
2022/06/15 03:53:02;;;;;;;;;;;19.80;67.30;;;19.19;62.87;96642.69;4053556;34;20104;-82
2022/06/15 03:55:31;;;;;;;;;;;19.80;67.40;;;19.20;62.72;96641.56;4053475;34;20207;-82
2022/06/15 03:58:00;;;;;;;;;;;19.90;67.30;;;19.20;62.89;96646.31;4074669;34;19977;-81
2022/06/15 04:00:30;;;;;;;;;;;19.80;67.20;;;19.20;62.84;96652.66;4074703;34;20257;-81
2022/06/15 04:03:11;;;;;;;;;;;19.90;67.50;;;19.22;62.64;96646.81;4053309;34;20001;-82
2022/06/15 04:05:55;;;;;;;;;;;19.90;67.30;;;19.23;62.86;96637.34;4075096;34;19904;-82
2022/06/15 04:08:38;;;;;;;;;;;19.90;67.30;;;19.23;62.42;96643.72;4074796;34;20224;-82
2022/06/15 04:11:58;;;;;;;;;;;19.90;67.20;;;19.24;62.75;96642.59;4052618;34;19905;-82
2022/06/15 04:14:13;;;;;;;;;;;19.90;67.20;;;19.27;62.59;96650.28;4053138;34;19971;-82
2022/06/15 04:16:46;;;;;;;;;;;19.90;67.20;;;19.29;62.20;96655.50;4052999;34;19912;-82
2022/06/15 04:19:17;;;;;;;;;;;20.00;66.90;;;19.30;62.35;96643.28;4074898;34;19946;-82
2022/06/15 04:21:48;;;;;;;;;;;20.00;66.70;;;19.30;62.48;96646.84;4052842;34;20441;-82
2022/06/15 04:24:17;;;;;;;;;;;20.00;66.90;;;19.34;62.75;96646.22;4053219;34;20242;-82
2022/06/15 04:26:46;;;;;;;;;;;20.00;67.40;;;19.35;62.80;96636.75;4074890;34;19904;-82
2022/06/15 04:29:19;;;;;;;;;;;20.00;67.20;;;19.35;62.79;96645.09;4053118;34;19904;-83
2022/06/15 04:31:49;;;;;;;;;;;20.00;67.40;;;19.35;63.00;96648.69;4096402;34;19904;-83
2022/06/15 04:34:21;;;;;;;;;;;20.00;67.20;;;19.36;62.96;96644.78;4074803;34;19911;-82
2022/06/15 04:36:50;;;;;;;;;;;20.10;67.40;;;19.36;62.92;96650.34;4052932;34;19912;-83
2022/06/15 04:39:19;;;;;;;;;;;20.10;67.70;;;19.37;62.78;96651.16;4053056;34;20146;-83
2022/06/15 04:41:49;;;;;;;;;;;20.00;67.50;;;19.38;63.02;96650.00;4096184;34;20220;-83
2022/06/15 04:44:22;;;;;;;;;;;20.10;67.60;;;19.37;62.86;96648.38;4096724;34;19911;-83
2022/06/15 04:46:55;;;;;;;;;;;20.10;67.50;;;19.38;63.02;96652.78;4074625;34;19997;-82
2022/06/15 04:49:28;;;;;;;;;;;20.10;67.50;;;19.38;62.95;96663.91;4074530;34;20059;-83
2022/06/15 04:51:56;;;;;;;;;;;20.00;67.50;;;19.37;63.08;96656.69;4052434;34;19905;-83
2022/06/15 04:54:27;;;;;;;;;;;20.00;67.60;;;19.37;63.22;96663.06;4052940;34;20204;-82
2022/06/15 04:56:59;;;;;;;;;;;20.00;67.80;;;19.38;63.47;96659.16;4074410;34;19915;-83
2022/06/15 04:59:29;;;;;;;;;;;20.10;68.30;;;19.40;63.60;96662.44;4074458;34;19911;-82
2022/06/15 05:01:59;;;;;;;;;;;20.10;68.30;;;19.45;63.91;96669.81;4073919;34;19904;-82
2022/06/15 05:04:30;;;;;;;;;;;20.10;68.50;;;19.46;63.45;96668.69;4052683;34;19911;-83
2022/06/15 05:07:00;;;;;;;;;;;20.20;68.10;;;19.48;63.53;96674.72;4052674;34;20228;-83
2022/06/15 05:09:28;;;;;;;;;;;20.20;68.10;;;19.50;63.59;96666.06;4052186;34;19904;-83
2022/06/15 05:11:57;;;;;;;;;;;20.20;68.00;;;19.53;63.34;96662.66;4095687;34;19955;-83
2022/06/15 05:14:26;;;;;;;;;;;20.20;68.10;;;19.55;63.33;96672.34;4074458;34;19904;-83
2022/06/15 05:16:57;;;;;;;;;;;20.30;68.20;;;19.58;63.25;96674.47;4096090;34;20246;-83
2022/06/15 05:19:32;;;;;;;;;;;20.30;68.20;;;19.61;63.22;96676.63;4096414;34;20186;-83
2022/06/15 05:22:01;;;;;;;;;;;20.30;68.00;;;19.63;63.43;96671.56;4073675;34;20146;-83
2022/06/15 05:24:33;;;;;;;;;;;20.30;67.90;;;19.63;63.64;96687.41;4096342;34;20028;-83
2022/06/15 05:27:05;;;;;;;;;;;20.30;68.00;;;19.61;63.39;96679.38;4052421;34;20353;-83
2022/06/15 05:29:36;;;;;;;;;;;20.30;68.10;;;19.60;63.48;96688.06;4074244;34;19904;-83
2022/06/15 05:32:14;;;;;;;;;;;20.30;67.80;;;19.58;63.30;96688.34;4074011;34;19921;-83
2022/06/15 05:34:45;;;;;;;;;;;20.30;68.00;;;19.58;63.87;96685.56;4074246;34;19912;-83
2022/06/15 05:37:14;;;;;;;;;;;20.30;68.50;;;19.59;63.94;96689.19;4052407;34;20172;-83
2022/06/15 05:39:42;;;;;;;;;;;20.30;68.40;;;19.60;63.72;96686.09;4052391;34;20071;-83
2022/06/15 05:42:12;;;;;;;;;;;20.30;68.30;;;19.61;63.48;96689.69;4073816;34;20253;-83
2022/06/15 05:44:47;;;;;;;;;;;20.30;68.10;;;19.62;63.26;96692.16;4074121;34;20173;-83
2022/06/15 05:47:15;;;;;;;;;;;20.30;68.00;;;19.61;63.70;96696.06;4052320;34;19927;-82
2022/06/15 05:50:08;;;;;;;;;;;20.30;68.10;;;19.61;63.45;96693.28;4043132;34;20238;-83
2022/06/15 05:52:46;;;;;;;;;;;20.30;68.40;;;19.61;63.82;96696.06;4074159;34;20050;-81
2022/06/15 05:55:15;;;;;;;;;;;20.30;68.30;;;19.62;63.69;96696.91;4074058;34;20420;-82
2022/06/15 05:57:44;;;;;;;;;;;20.30;68.30;;;19.61;63.18;96690.50;4073903;34;20246;-82
2022/06/15 06:00:14;;;;;;;;;;;20.30;68.10;;;19.64;63.46;96700.16;4073536;34;20032;-82
2022/06/15 06:02:44;;;;;;;;;;;20.30;68.10;;;19.65;63.11;96707.34;4073745;34;20052;-81
2022/06/15 06:05:14;;;;;;;;;;;20.30;67.80;;;19.67;63.58;96698.72;4073866;34;20103;-82
2022/06/15 06:07:43;;;;;;;;;;;20.30;67.90;;;19.68;63.29;96706.72;4073820;34;20133;-82
2022/06/15 06:10:12;;;;;;;;;;;20.30;67.70;;;19.69;63.32;96704.75;4073384;34;19982;-82
2022/06/15 06:12:40;;;;;;;;;;;20.40;68.00;;;19.69;63.66;96705.59;4073906;34;19912;-82
2022/06/15 06:15:10;;;;;;;;;;;20.40;68.00;;;19.71;63.46;96706.09;4095738;34;20185;-82
2022/06/15 06:17:38;;;;;;;;;;;20.40;68.00;;;19.75;63.43;96706.25;4052121;34;20079;-83
2022/06/15 06:20:10;;;;;;;;;;;20.40;67.90;;;19.77;63.19;96715.09;4096260;34;20039;-82
2022/06/15 06:22:40;;;;;;;;;;;20.50;67.90;;;19.80;63.33;96708.91;4077338;34;20136;-82
2022/06/15 06:25:10;;;;;;;;;;;20.50;67.80;;;19.82;63.17;96712.19;4101096;34;19911;-82
2022/06/15 06:27:39;;;;;;;;;;;20.50;67.80;;;19.84;63.30;96696.00;4078082;34;19906;-82
2022/06/15 06:30:10;;;;;;;;;;;20.50;67.80;;;19.86;62.85;96712.38;4055782;34;19905;-82
2022/06/15 06:32:39;;;;;;;;;;;20.50;67.50;;;19.87;63.26;96700.97;4078106;34;19904;-82
2022/06/15 06:35:09;;;;;;;;;;;20.60;67.60;;;19.88;63.26;96710.13;4101031;34;20077;-82
2022/06/15 06:37:39;;;;;;;;;;;20.50;67.60;;;19.90;63.01;96707.84;4056172;34;20410;-82
2022/06/15 06:40:12;;;;;;;;;;;20.60;67.70;;;19.92;63.08;96714.75;4077458;34;20423;-82
2022/06/15 06:42:41;;;;;;;;;;;20.60;67.40;;;19.93;63.10;96708.03;4077922;34;20071;-82
2022/06/15 06:45:12;;;;;;;;;;;20.60;67.50;;;19.96;63.17;96709.34;4077959;34;19908;-82
2022/06/15 06:47:42;;;;;;;;;;;20.70;67.40;;;20.00;62.62;96706.75;4055927;34;20120;-82
2022/06/15 06:50:11;;;;;;;;;;;20.70;67.30;;;20.00;62.83;96702.03;4077525;34;19955;-82
2022/06/15 06:52:42;;;;;;;;;;;20.70;67.20;;;20.03;62.75;96701.38;4077700;34;20146;-82
2022/06/15 06:55:11;;;;;;;;;;;20.70;67.30;;;20.06;62.69;96700.72;4119760;34;19904;-82
2022/06/15 06:57:40;;;;;;;;;;;20.70;67.10;;;20.07;62.79;96702.38;4104258;34;20112;-81
2022/06/15 07:00:10;;;;;;;;;;;20.80;67.20;;;20.12;62.62;96708.94;4109605;34;19919;-82
2022/06/15 07:02:39;;;;;;;;;;;20.80;67.00;;;20.13;62.61;96697.50;4077698;34;19909;-82
2022/06/15 07:05:09;;;;;;;;;;;20.80;66.90;;;20.16;62.47;96713.53;4116215;34;20069;-82
2022/06/15 07:07:38;;;;;;;;;;;20.80;66.90;;;20.15;62.25;96709.13;4082046;34;19904;-82
2022/06/15 07:10:09;;;;;;;;;;;20.80;66.90;;;20.17;62.39;96717.97;4127017;34;19957;-82
2022/06/15 07:12:38;;;;;;;;;;;20.80;66.80;;;20.19;62.59;96706.50;4104381;34;20014;-82
2022/06/15 07:15:08;;;;;;;;;;;20.80;66.60;;;20.19;62.24;96712.91;4104093;34;20154;-82
2022/06/15 07:17:36;;;;;;;;;;;20.90;66.60;;;20.21;61.95;96707.81;4081990;34;19911;-82
2022/06/15 07:20:07;;;;;;;;;;;20.90;66.50;;;20.22;62.09;96712.25;4081638;34;20573;-82
2022/06/15 07:22:36;;;;;;;;;;;20.90;66.40;;;20.23;61.96;96711.09;4103926;34;19911;-82
2022/06/15 07:25:08;;;;;;;;;;;20.90;66.50;;;20.23;61.80;96716.66;4104160;34;19961;-82
2022/06/15 07:27:37;;;;;;;;;;;20.90;66.30;;;20.25;61.93;96719.13;4082050;34;19987;-82
2022/06/15 07:30:08;;;;;;;;;;;20.90;66.40;;;20.26;62.09;96717.16;4127083;34;20166;-81
2022/06/15 07:32:38;;;;;;;;;;;20.90;66.30;;;20.27;61.81;96714.03;4103036;34;20135;-82
2022/06/15 07:35:08;;;;;;;;;;;20.90;66.20;;;20.29;61.83;96719.31;4103389;34;19904;-82
2022/06/15 07:37:37;;;;;;;;;;;20.90;66.10;;;20.28;61.88;96710.13;4097290;34;19912;-82
2022/06/15 07:40:09;;;;;;;;;;;21.00;66.00;;;20.29;61.45;96710.97;4097164;34;20149;-82
2022/06/15 07:42:38;;;;;;;;;;;21.00;66.00;;;20.30;61.60;96710.63;4097342;34;20097;-82
2022/06/15 07:45:09;;;;;;;;;;;21.00;66.00;;;20.31;61.73;96712.28;4075179;34;20079;-81
2022/06/15 07:50:23;;;;;;;;;;;21.00;66.00;;;20.32;61.59;96711.13;4053157;34;19904;-82
2022/06/15 07:52:53;;;;;;;;;;;21.00;65.90;;;20.32;61.86;96711.13;4074846;34;20007;-82
2022/06/15 07:55:26;;;;;;;;;;;21.00;65.90;;;20.33;61.34;96709.19;4053239;34;19904;-82
2022/06/15 07:57:55;;;;;;;;;;;21.00;65.80;;;20.33;61.66;96718.34;4053165;34;19905;-82
2022/06/15 08:00:24;;;;;;;;;;;21.00;65.90;;;20.33;61.33;96710.00;4052894;34;20132;-83
2022/06/15 08:02:52;;;;;;;;;;;21.00;65.80;;;20.34;61.61;96713.59;4075031;34;19995;-81
2022/06/15 08:05:21;;;;;;;;;;;21.00;65.90;;;20.34;61.31;96721.94;4053445;34;19911;-82
2022/06/15 08:07:50;;;;;;;;;;;21.00;65.90;;;20.33;61.23;96714.75;4053131;34;19912;-82
2022/06/15 08:10:21;;;;;;;;;;;21.00;65.60;;;20.33;61.50;96715.56;4053026;34;19904;-82
2022/06/15 08:12:51;;;;;;;;;;;21.00;65.80;;;20.34;61.62;96727.47;4074896;34;19913;-82
2022/06/15 08:15:20;;;;;;;;;;;21.00;65.70;;;20.33;61.60;96723.09;4075072;34;20170;-82
2022/06/15 08:17:52;;;;;;;;;;;21.00;65.80;;;20.32;61.48;96718.66;4074708;34;19912;-82
2022/06/15 08:20:24;;;;;;;;;;;21.00;65.80;;;20.32;61.54;96725.03;4074637;34;19911;-82
2022/06/15 08:22:55;;;;;;;;;;;21.00;65.90;;;20.30;61.88;96721.75;4074981;34;20109;-82
2022/06/15 08:25:25;;;;;;;;;;;21.00;65.90;;;20.31;61.59;96726.19;4074976;34;20131;-81
2022/06/15 08:27:56;;;;;;;;;;;21.00;65.90;;;20.30;61.86;96718.16;4074843;34;20006;-82
2022/06/15 08:30:25;;;;;;;;;;;21.00;66.10;;;20.29;61.67;96722.91;4074652;34;20191;-83
2022/06/15 08:32:53;;;;;;;;;;;21.00;66.00;;;20.29;61.81;96719.31;4053009;34;19905;-82
2022/06/15 08:35:22;;;;;;;;;;;21.00;66.00;;;20.26;61.85;96718.00;4053089;34;20025;-82
2022/06/15 08:37:51;;;;;;;;;;;21.00;66.00;;;20.26;61.54;96725.50;4052921;34;19958;-82
2022/06/15 08:40:20;;;;;;;;;;;21.00;66.00;;;20.24;62.01;96718.31;4052436;34;20077;-82
2022/06/15 08:42:56;;;;;;;;;;;20.90;66.20;;;20.23;61.75;96716.66;4074615;34;19904;-82
2022/06/15 08:45:32;;;;;;;;;;;20.90;66.20;;;20.21;62.13;96732.84;4074688;34;20073;-82
2022/06/15 08:48:31;;;;;;;;;;;20.90;66.20;;;20.21;61.90;96721.72;4097545;34;19905;-82
2022/06/15 08:51:03;;;;;;;;;;;20.90;66.30;;;20.19;62.00;96718.47;4052520;34;19912;-81
2022/06/15 08:53:38;;;;;;;;;;;20.90;66.30;;;20.18;61.84;96721.53;4052895;34;19905;-81
2022/06/15 08:56:11;;;;;;;;;;;20.90;66.20;;;20.18;61.88;96722.38;4074703;34;20128;-81
2022/06/15 08:58:45;;;;;;;;;;;20.90;66.20;;;20.14;62.10;96718.59;4052689;34;19912;-81
2022/06/15 09:01:26;;;;;;;;;;;20.80;66.20;;;20.14;62.46;96729.72;4097178;34;20146;-81
2022/06/15 09:04:00;;;;;;;;;;;20.80;66.40;;;20.14;62.45;96720.56;4097364;34;20190;-82
2022/06/15 09:06:37;;;;;;;;;;;20.80;66.50;;;20.13;62.16;96728.06;4074364;34;19904;-81
2022/06/15 09:09:19;;;;;;;;;;;20.80;66.50;;;20.11;62.04;96724.78;4052818;34;20171;-82
2022/06/15 09:12:49;;;;;;;;;;;20.80;66.50;;;20.11;62.38;96719.22;4096991;34;20421;-82
2022/06/15 09:14:54;;;;;;;;;;;20.80;66.50;;;20.10;62.15;96722.34;4074212;34;19984;-82
2022/06/15 09:17:24;;;;;;;;;;;20.80;66.70;;;20.12;62.35;96720.88;4114213;34;19904;-82
2022/06/15 09:19:57;;;;;;;;;;;20.80;66.50;;;20.10;61.98;96723.13;4100607;34;20113;-82
2022/06/15 09:22:29;;;;;;;;;;;20.80;66.40;;;20.10;62.05;96722.34;4100717;34;20023;-82
2022/06/15 09:25:01;;;;;;;;;;;20.80;66.50;;;20.09;62.33;96727.06;4078750;34;19904;-82
2022/06/15 09:27:33;;;;;;;;;;;20.80;66.70;;;20.06;62.45;96727.72;4100724;34;19971;-82
2022/06/15 09:30:07;;;;;;;;;;;20.80;66.70;;;20.06;62.43;96722.16;4078322;34;19904;-82
2022/06/15 09:32:38;;;;;;;;;;;20.80;66.80;;;20.06;62.73;96730.50;4100789;34;20151;-82
2022/06/15 09:35:10;;;;;;;;;;;20.80;66.90;;;20.07;62.27;96723.81;4078607;34;19904;-82
2022/06/15 09:37:40;;;;;;;;;;;20.80;66.70;;;20.07;62.47;96730.16;4078488;34;19946;-82
2022/06/15 09:40:10;;;;;;;;;;;20.80;66.80;;;20.07;62.21;96724.59;4078310;34;20336;-82
2022/06/15 09:42:46;;;;;;;;;;;20.80;66.70;;;20.09;62.52;96727.06;4063232;34;20242;-82
2022/06/15 09:45:21;;;;;;;;;;;20.80;66.70;;;20.09;62.48;96732.63;4052305;34;19912;-82
2022/06/15 09:47:55;;;;;;;;;;;20.80;66.70;;;20.06;62.33;96722.97;4090191;34;19919;-82
2022/06/15 09:50:30;;;;;;;;;;;20.80;66.60;;;20.07;62.27;96723.81;4078061;34;19998;-82
2022/06/15 09:53:11;;;;;;;;;;;20.80;66.50;;;20.05;62.53;96726.06;4078569;34;19947;-82
2022/06/15 09:55:42;;;;;;;;;;;20.80;66.70;;;20.03;62.21;96728.34;4078220;34;20219;-82
2022/06/15 09:58:13;;;;;;;;;;;20.70;66.70;;;20.01;62.65;96731.44;4123576;34;19904;-82
2022/06/15 10:00:44;;;;;;;;;;;20.70;66.80;;;20.00;62.90;96734.53;4123165;34;20109;-82
2022/06/15 10:03:20;;;;;;;;;;;20.70;67.10;;;19.99;62.51;96730.13;4123523;34;20095;-82
2022/06/15 10:05:50;;;;;;;;;;;20.70;67.00;;;19.98;62.67;96726.53;4078363;34;19904;-82
2022/06/15 10:08:19;;;;;;;;;;;20.70;67.10;;;19.99;62.51;96717.06;4123579;34;20302;-82
2022/06/15 10:10:52;;;;;;;;;;;20.70;67.10;;;19.99;62.47;96714.28;4077656;34;19905;-82
2022/06/15 10:13:33;;;;;;;;;;;20.70;67.00;;;19.99;62.79;96708.72;4078461;34;20045;-83
2022/06/15 10:16:03;;;;;;;;;;;20.70;67.00;;;20.01;62.63;96719.50;4078457;34;19916;-82
2022/06/15 10:18:36;;;;;;;;;;;20.70;66.80;;;20.01;62.37;96719.50;4123282;34;20123;-82
2022/06/15 10:21:09;;;;;;;;;;;20.70;67.00;;;20.02;62.45;96719.19;4123110;34;19904;-82
2022/06/15 10:23:49;;;;;;;;;;;20.70;67.00;;;20.02;62.78;96716.41;4100073;34;19904;-82
2022/06/15 10:26:41;;;;;;;;;;;20.70;67.00;;;20.02;62.76;96705.28;4100138;34;20211;-82
2022/06/15 10:29:31;;;;;;;;;;;20.70;66.90;;;20.01;62.40;96703.63;4073833;34;19927;-82
2022/06/15 10:32:15;;;;;;;;;;;20.70;67.00;;;20.02;62.42;96710.84;4077830;34;19904;-82
2022/06/15 10:35:05;;;;;;;;;;;20.70;67.00;;;20.02;62.52;96707.25;4078120;34;20098;-83
2022/06/15 10:37:36;;;;;;;;;;;20.70;67.00;;;20.02;62.69;96704.47;4077964;34;19904;-83
2022/06/15 10:40:17;;;;;;;;;;;20.70;67.00;;;20.03;62.42;96703.34;4099675;34;20131;-83
2022/06/15 10:42:50;;;;;;;;;;;20.70;66.80;;;20.03;62.76;96700.56;4078178;34;19997;-82
2022/06/15 10:45:25;;;;;;;;;;;20.70;66.80;;;20.02;62.60;96696.94;4078193;34;20127;-82
2022/06/15 10:47:58;;;;;;;;;;;20.70;66.90;;;20.02;62.19;96690.59;4078068;34;19918;-82
2022/06/15 10:50:29;;;;;;;;;;;20.70;66.90;;;20.00;62.46;96688.13;4077547;34;19904;-82
2022/06/15 10:53:00;;;;;;;;;;;20.70;67.00;;;19.99;62.48;96688.44;4100268;34;19911;-82
2022/06/15 11:04:17;;;;;;;;;;;20.70;67.10;;;19.99;62.75;96692.06;4073378;34;19905;-82
2022/06/15 11:06:52;;;;;;;;;;;20.70;67.30;;;19.98;62.20;96686.78;4051694;34;20387;-82
2022/06/15 11:09:26;;;;;;;;;;;20.70;66.90;;;19.97;62.71;96685.16;4074811;34;20139;-82
2022/06/15 11:11:56;;;;;;;;;;;20.60;67.00;;;19.96;62.59;96683.50;4075375;34;19957;-82
2022/06/15 11:14:28;;;;;;;;;;;20.70;67.30;;;19.98;62.54;96686.78;4054007;34;19908;-82
2022/06/15 11:20:33;;;;;;;;;;;20.70;66.90;;;19.99;62.49;96680.09;4075019;34;20511;-82
2022/06/15 11:23:07;;;;;;;;;;;20.70;67.00;;;19.99;62.75;96668.97;4075757;34;20131;-82
2022/06/15 11:25:42;;;;;;;;;;;20.70;67.20;;;19.99;62.72;96672.59;4075570;34;19904;-82
2022/06/15 11:28:16;;;;;;;;;;;20.70;67.20;;;19.98;62.70;96672.91;4075487;34;19944;-82
2022/06/15 11:30:52;;;;;;;;;;;20.70;67.20;;;19.98;62.23;96676.50;4096920;34;20158;-83
2022/06/15 11:33:25;;;;;;;;;;;20.70;67.10;;;19.99;62.48;96671.75;4075653;34;20386;-82
2022/06/15 11:36:03;;;;;;;;;;;20.70;67.10;;;20.00;62.14;96676.19;4075510;34;19911;-82
2022/06/15 11:38:43;;;;;;;;;;;20.70;66.80;;;20.00;62.66;96673.41;4053629;34;19913;-82
2022/06/15 11:41:22;;;;;;;;;;;20.70;67.20;;;19.99;62.24;96674.53;4053182;34;19905;-82
2022/06/15 11:43:51;;;;;;;;;;;20.70;66.80;;;19.98;62.75;96670.13;4081674;34;19911;-82
2022/06/15 11:46:44;;;;;;;;;;;20.70;67.10;;;19.96;62.51;96673.22;4101055;34;25018;-82
2022/06/15 11:49:19;;;;;;;;;;;20.70;67.00;;;19.97;62.52;96662.91;4080021;34;20046;-82
2022/06/15 11:51:59;;;;;;;;;;;20.60;67.00;;;19.97;62.69;96669.31;4101390;34;19911;-82
2022/06/15 11:54:43;;;;;;;;;;;20.70;67.20;;;19.97;62.78;96674.03;4079735;34;20047;-82
2022/06/15 11:57:19;;;;;;;;;;;20.70;67.20;;;19.98;62.61;96670.97;4124944;34;19947;-82
2022/06/15 11:59:51;;;;;;;;;;;20.70;67.00;;;19.99;62.44;96671.75;4079603;34;19904;-82